VDPP

Phnom Penh International Airport

Phnom Penh, Cambodia
TAF VDPP 182300Z 1900/1918 05007KT 9999 SCT017 TEMPO 1906/1911 SCT015 FEW017CB
Issued Valid From Valid To
Jan-18 @ 23:00 UTC
(3 hours ago)
Jan-19 @ 00:00 UTC
(2 hours ago)
Jan-19 @ 18:00 UTC
(in 16 hours)
Jan-19 @ 00:00 to Jan-19 @ 18:00
TAF VDPP 182300Z 1900/1918 05007KT 9999 SCT017
Wind Visibility Clouds
50° at 7 knots 10,000+ meters
  • Scattered at 1,700' AGL
Temporary Jan-19 @ 06:00 to Jan-19 @ 11:00
TEMPO 1906/1911 SCT015 FEW017CB
Clouds
  • Scattered at 1,500' AGL
  • Few at 1,700' AGL
TAF VDPP 182300Z 1900/1918 05007KT 9999 SCT017 TEMPO 1906/1911 SCT015 FEW017CB
Issued Jan-18 @ 23:00 UTC
(3 hours ago)
Valid From Jan-19 @ 00:00 UTC
(2 hours ago)
Valid To Jan-19 @ 18:00 UTC
(in 16 hours)
Jan-19 @ 00:00 - Jan-19 @ 18:00
Wind Visibility
50° at 7 knots 10,000+ meters
Clouds
  • Scattered at 1,700' AGL
Temporary Jan-19 @ 06:00 - Jan-19 @ 11:00
Clouds
  • Scattered at 1,500' AGL
  • Few at 1,700' AGL